Time;durP1;ratioP1;P1;durP2;ratioP2;P2;SDS_P1;SDS_P2;PMS_P1;PMS_P2;Temp;Humidity;BMP_temperature;BMP_pressure;BME280_temperature;BME280_humidity;BME280_pressure;Samples;Min_cycle;Max_cycle;Signal;HPM_P1;HPM_P2
2021/04/20 00:01:13;;;;;;;48.07;31.80;;;9.00;99.90;;;;;;4972460;28;20558;-76
2021/04/20 00:03:39;;;;;;;46.53;32.20;;;8.90;99.90;;;;;;5004877;28;20229;-76
2021/04/20 00:06:07;;;;;;;48.73;31.83;;;8.80;99.90;;;;;;4972329;28;20595;-76
2021/04/20 00:08:33;;;;;;;55.07;36.67;;;8.80;99.90;;;;;;4972943;28;20192;-76
2021/04/20 00:10:58;;;;;;;64.50;40.90;;;8.80;99.90;;;;;;4971850;28;20239;-77
2021/04/20 00:13:24;;;;;;;63.47;40.60;;;8.90;99.90;;;;;;5003783;28;20666;-76
2021/04/20 00:15:51;;;;;;;60.90;38.80;;;8.90;99.90;;;;;;4974387;28;20656;-76
2021/04/20 00:18:17;;;;;;;63.80;39.97;;;8.80;99.90;;;;;;4971016;28;20181;-77
2021/04/20 00:20:42;;;;;;;60.87;38.90;;;8.70;99.90;;;;;;4973605;28;20521;-76
2021/04/20 00:23:09;;;;;;;64.80;39.53;;;8.70;99.90;;;;;;4972864;28;20189;-76
2021/04/20 00:25:35;;;;;;;65.10;39.77;;;8.80;99.90;;;;;;4971736;28;20195;-76
2021/04/20 00:28:01;;;;;;;68.60;42.03;;;8.70;99.90;;;;;;4978566;28;20203;-76
2021/04/20 00:30:27;;;;;;;66.40;41.43;;;8.70;99.90;;;;;;4970505;28;20579;-76
2021/04/20 00:32:53;;;;;;;67.63;40.40;;;8.50;99.90;;;;;;5006105;28;20202;-77
2021/04/20 00:35:19;;;;;;;65.30;40.20;;;8.50;99.90;;;;;;4956345;28;20223;-76
2021/04/20 00:37:45;;;;;;;64.17;38.70;;;8.40;99.90;;;;;;4988198;28;20198;-77
2021/04/20 00:40:13;;;;;;;66.37;39.17;;;8.40;99.90;;;;;;4987775;28;20179;-77
2021/04/20 00:42:55;;;;;;;66.47;39.50;;;8.30;99.90;;;;;;4985764;28;20274;-77
2021/04/20 00:45:30;;;;;;;64.37;37.70;;;8.30;99.90;;;;;;4973125;28;20599;-77
2021/04/20 00:47:56;;;;;;;54.73;35.17;;;8.30;99.90;;;;;;4968832;28;20254;-77
2021/04/20 00:50:54;;;;;;;58.87;36.90;;;8.30;99.90;;;;;;4970984;28;20212;-76
2021/04/20 00:53:20;;;;;;;69.93;41.17;;;8.40;99.90;;;;;;4982082;28;20200;-77
2021/04/20 00:55:46;;;;;;;68.23;40.77;;;8.40;99.90;;;;;;4972859;28;20183;-76
2021/04/20 00:58:12;;;;;;;68.27;40.63;;;8.40;99.90;;;;;;4986108;28;20234;-77
2021/04/20 01:00:38;;;;;;;71.57;42.40;;;8.50;99.90;;;;;;4971420;28;20196;-76
2021/04/20 01:03:05;;;;;;;66.90;41.33;;;8.40;99.90;;;;;;5003395;28;20176;-76
2021/04/20 01:05:35;;;;;;;66.10;41.10;;;8.40;99.90;;;;;;4984714;28;20188;-77
2021/04/20 01:08:07;;;;;;;72.53;43.83;;;8.30;99.90;;;;;;5002556;28;20194;-76
2021/04/20 01:10:35;;;;;;;82.00;47.30;;;8.30;99.90;;;;;;4972925;28;20223;-76
2021/04/20 01:13:03;;;;;;;87.37;49.37;;;8.30;99.90;;;;;;4968983;28;20241;-77
2021/04/20 01:15:31;;;;;;;82.13;45.57;;;8.10;99.90;;;;;;4971669;28;20195;-76
2021/04/20 01:18:07;;;;;;;83.27;46.10;;;8.00;99.90;;;;;;4969333;28;20184;-76
2021/04/20 01:20:33;;;;;;;82.70;47.03;;;8.00;99.90;;;;;;5002122;28;20191;-76
2021/04/20 01:22:59;;;;;;;91.63;48.93;;;8.10;99.90;;;;;;4972470;28;20242;-77
2021/04/20 01:25:25;;;;;;;84.77;47.17;;;8.10;99.90;;;;;;4986298;28;20532;-76
2021/04/20 01:27:51;;;;;;;90.27;47.87;;;8.00;99.90;;;;;;5003102;28;20190;-77
2021/04/20 01:30:17;;;;;;;78.90;45.27;;;7.90;99.90;;;;;;4969712;28;20203;-77
2021/04/20 01:32:43;;;;;;;84.53;46.33;;;7.70;99.90;;;;;;4986695;28;20219;-77
2021/04/20 01:35:10;;;;;;;86.70;47.80;;;7.60;99.90;;;;;;4971508;28;20326;-76
2021/04/20 01:37:37;;;;;;;98.80;52.03;;;7.50;99.90;;;;;;4972014;28;20187;-76
2021/04/20 01:40:07;;;;;;;108.57;55.43;;;7.40;99.90;;;;;;4970848;28;20179;-76
2021/04/20 01:42:34;;;;;;;108.90;56.33;;;7.40;99.90;;;;;;4969527;28;20213;-76
2021/04/20 01:44:59;;;;;;;102.93;53.97;;;7.40;99.90;;;;;;4986658;28;20207;-77
2021/04/20 01:47:26;;;;;;;95.10;50.80;;;7.50;99.90;;;;;;4970872;28;20648;-76
2021/04/20 01:49:54;;;;;;;76.90;43.53;;;7.50;99.90;;;;;;4984848;28;20218;-77
2021/04/20 01:52:20;;;;;;;63.53;38.20;;;7.50;99.90;;;;;;4971894;28;20270;-78
2021/04/20 01:54:46;;;;;;;64.13;39.67;;;7.60;99.90;;;;;;4970795;28;20274;-77
2021/04/20 01:57:12;;;;;;;68.67;41.73;;;7.50;99.90;;;;;;4971889;28;20225;-77
2021/04/20 01:59:37;;;;;;;84.73;46.03;;;7.50;99.90;;;;;;4972008;28;20229;-77
2021/04/20 02:02:03;;;;;;;79.40;43.27;;;7.60;99.90;;;;;;4971513;28;20238;-77
2021/04/20 02:04:29;;;;;;;97.70;49.57;;;7.70;99.90;;;;;;4972782;28;20201;-77
2021/04/20 02:06:55;;;;;;;95.33;51.33;;;7.70;99.90;;;;;;4969021;28;20199;-77
2021/04/20 02:09:21;;;;;;;94.83;51.10;;;7.70;99.90;;;;;;4972001;28;20301;-77
2021/04/20 02:11:47;;;;;;;105.97;53.60;;;7.60;99.90;;;;;;4970751;28;20184;-77
2021/04/20 02:14:12;;;;;;;107.00;54.10;;;7.60;99.90;;;;;;4974343;28;20188;-77
2021/04/20 02:16:41;;;;;;;107.10;54.93;;;7.50;99.90;;;;;;4992627;28;20191;-76
2021/04/20 02:19:12;;;;;;;100.43;51.97;;;7.30;99.90;;;;;;4972444;28;20669;-76
2021/04/20 02:21:39;;;;;;;101.27;51.93;;;7.10;99.90;;;;;;4974151;28;20215;-77
2021/04/20 02:24:12;;;;;;;94.53;51.33;;;7.10;99.90;;;;;;5002547;28;20195;-76
2021/04/20 02:26:39;;;;;;;94.90;49.37;;;7.00;99.90;;;;;;4975928;28;20182;-77
2021/04/20 02:29:06;;;;;;;100.80;52.17;;;7.00;99.90;;;;;;4973777;28;20244;-76
2021/04/20 02:31:37;;;;;;;100.80;52.03;;;7.00;99.90;;;;;;4974788;28;20206;-77
2021/04/20 02:34:04;;;;;;;90.40;49.30;;;7.10;99.90;;;;;;4972386;28;20237;-76
2021/04/20 02:36:34;;;;;;;79.27;44.23;;;7.20;99.90;;;;;;5005688;28;20207;-76
2021/04/20 02:39:00;;;;;;;81.70;43.67;;;7.20;99.90;;;;;;4975540;28;20183;-76
2021/04/20 02:41:26;;;;;;;74.23;41.70;;;7.20;99.90;;;;;;4989136;28;20206;-76
2021/04/20 02:43:52;;;;;;;81.97;44.07;;;7.30;99.90;;;;;;4974455;28;20656;-77
2021/04/20 02:46:18;;;;;;;93.67;49.47;;;7.30;99.90;;;;;;4974062;28;20193;-76
2021/04/20 02:48:45;;;;;;;103.10;51.30;;;7.30;99.90;;;;;;4987506;28;20223;-76
2021/04/20 02:51:12;;;;;;;98.17;49.83;;;7.40;99.90;;;;;;4977941;28;20182;-76
2021/04/20 02:53:41;;;;;;;107.20;51.90;;;7.40;99.90;;;;;;4986646;28;20214;-77
2021/04/20 02:56:06;;;;;;;105.13;52.63;;;7.40;99.90;;;;;;4974863;28;20274;-76
2021/04/20 02:58:33;;;;;;;101.37;52.80;;;7.40;99.90;;;;;;4974308;28;20278;-76
2021/04/20 03:01:10;;;;;;;104.67;53.30;;;7.40;99.90;;;;;;5005022;28;20199;-76
2021/04/20 03:03:37;;;;;;;111.60;55.00;;;7.40;99.90;;;;;;4987039;28;20194;-76
2021/04/20 03:06:04;;;;;;;109.17;54.33;;;7.50;99.90;;;;;;5006272;28;20187;-76
2021/04/20 03:08:31;;;;;;;103.83;52.53;;;7.40;99.90;;;;;;4973250;28;20207;-77
2021/04/20 03:11:04;;;;;;;101.03;53.43;;;7.30;99.90;;;;;;4986752;28;20194;-77
2021/04/20 03:13:32;;;;;;;103.67;52.57;;;7.20;99.90;;;;;;5005277;28;20180;-76
2021/04/20 03:15:57;;;;;;;97.60;51.13;;;7.30;99.90;;;;;;4957031;28;20250;-76
2021/04/20 03:18:23;;;;;;;107.03;54.83;;;7.30;99.90;;;;;;5004890;28;20186;-76
2021/04/20 03:20:49;;;;;;;128.07;68.13;;;7.40;99.90;;;;;;4972844;28;21436;-76
2021/04/20 03:23:16;;;;;;;115.60;58.60;;;7.10;99.90;;;;;;4973552;28;20450;-76
2021/04/20 03:25:41;;;;;;;117.00;58.90;;;7.20;99.90;;;;;;4990355;28;20190;-76
2021/04/20 03:28:08;;;;;;;116.33;58.13;;;7.20;99.90;;;;;;4977739;28;20182;-76
2021/04/20 03:30:34;;;;;;;117.50;58.47;;;7.20;99.90;;;;;;4986950;28;20215;-76
2021/04/20 03:33:03;;;;;;;112.43;56.70;;;7.20;99.90;;;;;;4972386;28;20262;-76
2021/04/20 03:35:58;;;;;;;108.87;56.77;;;7.20;99.90;;;;;;4972066;28;20227;-76
2021/04/20 03:38:33;;;;;;;108.73;53.80;;;7.20;99.90;;;;;;4973235;28;20187;-76
2021/04/20 03:41:04;;;;;;;100.73;51.83;;;7.20;99.90;;;;;;5004422;28;20641;-76
2021/04/20 03:43:33;;;;;;;107.13;53.53;;;7.10;99.90;;;;;;4975758;28;20191;-76
2021/04/20 03:46:07;;;;;;;99.03;51.13;;;7.10;99.90;;;;;;4971953;28;20183;-76
2021/04/20 03:48:40;;;;;;;89.67;49.17;;;7.20;99.90;;;;;;4976693;28;20209;-77
2021/04/20 03:51:12;;;;;;;90.40;49.27;;;7.20;99.90;;;;;;5003046;28;20201;-76
2021/04/20 03:53:41;;;;;;;99.13;50.40;;;7.20;99.90;;;;;;4972257;28;20179;-77
2021/04/20 03:56:08;;;;;;;96.93;50.63;;;7.20;99.90;;;;;;4971970;28;20283;-77
2021/04/20 03:58:36;;;;;;;94.77;48.93;;;7.10;99.90;;;;;;5004822;28;20189;-77
2021/04/20 04:01:04;;;;;;;97.17;49.60;;;7.00;99.90;;;;;;4972365;28;20552;-78
2021/04/20 04:03:30;;;;;;;104.00;52.97;;;6.90;99.90;;;;;;4971433;28;20195;-75
2021/04/20 04:05:58;;;;;;;101.07;52.00;;;6.90;99.90;;;;;;5004121;28;20192;-76
2021/04/20 04:08:27;;;;;;;100.03;51.47;;;6.80;99.90;;;;;;4971515;28;20707;-76
2021/04/20 04:10:55;;;;;;;106.03;52.23;;;6.80;99.90;;;;;;4971691;28;20205;-76
2021/04/20 04:13:24;;;;;;;108.77;54.10;;;6.80;99.90;;;;;;4975094;28;20580;-77
2021/04/20 04:15:54;;;;;;;116.80;56.77;;;6.80;99.90;;;;;;4972662;28;20187;-77
2021/04/20 04:18:22;;;;;;;125.87;59.60;;;6.80;99.90;;;;;;4987792;28;20198;-77
2021/04/20 04:20:48;;;;;;;137.47;64.40;;;6.90;99.90;;;;;;4987025;28;20249;-77
2021/04/20 04:23:24;;;;;;;146.03;65.53;;;6.90;99.90;;;;;;4970210;28;20195;-77
2021/04/20 04:26:30;;;;;;;146.37;67.53;;;6.80;99.90;;;;;;5002290;28;20187;-77
2021/04/20 04:28:58;;;;;;;151.70;68.13;;;6.70;99.90;;;;;;4972226;28;20226;-77
2021/04/20 04:31:24;;;;;;;141.57;68.20;;;6.70;99.90;;;;;;4971281;28;20273;-77
2021/04/20 04:33:51;;;;;;;130.47;64.77;;;6.70;99.90;;;;;;4971303;28;20232;-77
2021/04/20 04:36:18;;;;;;;134.53;62.57;;;6.70;99.90;;;;;;4971709;28;20325;-78
2021/04/20 04:38:45;;;;;;;132.87;63.23;;;6.70;99.90;;;;;;4973183;28;20184;-77
2021/04/20 04:41:11;;;;;;;126.23;62.53;;;6.80;99.90;;;;;;4973209;28;20238;-77
2021/04/20 04:43:40;;;;;;;133.80;60.47;;;6.80;99.90;;;;;;4971816;28;20201;-78
2021/04/20 04:46:06;;;;;;;130.63;63.77;;;6.80;99.90;;;;;;4969698;28;20177;-77
2021/04/20 04:48:33;;;;;;;132.67;61.63;;;6.80;99.90;;;;;;4971853;28;20572;-78
2021/04/20 04:51:04;;;;;;;150.57;67.33;;;6.90;99.90;;;;;;4971281;28;20183;-77
2021/04/20 04:53:34;;;;;;;143.03;66.60;;;6.90;99.90;;;;;;4976779;28;20247;-77
2021/04/20 04:56:02;;;;;;;140.30;66.47;;;7.00;99.90;;;;;;4970494;28;20672;-76
2021/04/20 04:58:32;;;;;;;128.50;61.77;;;7.00;99.90;;;;;;4973402;28;20772;-76
2021/04/20 05:00:59;;;;;;;125.43;60.40;;;7.00;99.90;;;;;;4969335;28;20230;-76
2021/04/20 05:03:26;;;;;;;126.07;61.43;;;7.00;99.90;;;;;;4972172;28;20182;-76
2021/04/20 05:05:59;;;;;;;116.67;58.13;;;7.00;99.90;;;;;;4972732;28;20197;-75
2021/04/20 05:08:26;;;;;;;104.33;53.67;;;7.10;99.90;;;;;;5005301;28;20673;-77
2021/04/20 05:10:52;;;;;;;110.20;54.83;;;7.10;99.90;;;;;;4955487;28;20225;-77
2021/04/20 05:13:18;;;;;;;101.20;52.50;;;7.20;99.90;;;;;;4971356;28;20661;-76
2021/04/20 05:15:44;;;;;;;103.37;50.70;;;7.30;99.90;;;;;;4971507;28;20187;-75
2021/04/20 05:18:11;;;;;;;97.33;50.10;;;7.30;99.90;;;;;;4969837;28;20513;-78
2021/04/20 05:20:45;;;;;;;99.30;51.50;;;7.40;99.90;;;;;;4987346;28;20179;-80
2021/04/20 05:23:15;;;;;;;105.53;54.87;;;7.50;99.90;;;;;;4972511;28;20183;-76
2021/04/20 05:25:41;;;;;;;104.93;54.83;;;7.60;99.90;;;;;;5003002;28;20210;-76
2021/04/20 05:28:07;;;;;;;105.60;53.77;;;7.70;99.90;;;;;;4977469;28;20185;-76
2021/04/20 05:30:33;;;;;;;101.43;54.83;;;8.10;99.90;;;;;;4968830;28;20219;-76
2021/04/20 05:32:59;;;;;;;94.17;51.97;;;8.50;99.90;;;;;;4973956;28;20265;-76
2021/04/20 05:35:25;;;;;;;87.67;49.23;;;9.00;99.90;;;;;;4970545;28;20278;-77
2021/04/20 05:37:51;;;;;;;85.00;48.73;;;9.40;99.90;;;;;;4986139;28;20697;-76
2021/04/20 05:40:20;;;;;;;84.37;48.27;;;9.70;99.90;;;;;;4998100;28;20303;-77
2021/04/20 05:42:47;;;;;;;76.63;43.53;;;10.00;99.90;;;;;;4969797;28;20283;-75
2021/04/20 05:45:15;;;;;;;73.17;42.40;;;10.20;99.90;;;;;;5002479;28;20218;-75
2021/04/20 05:47:46;;;;;;;77.30;43.87;;;10.10;99.90;;;;;;5005358;28;20545;-75
2021/04/20 05:50:24;;;;;;;79.80;44.23;;;10.40;99.90;;;;;;4975367;28;20682;-75
2021/04/20 05:52:50;;;;;;;77.03;45.00;;;10.70;99.90;;;;;;4974818;28;20265;-76
2021/04/20 05:55:15;;;;;;;80.17;46.63;;;10.80;99.90;;;;;;4974001;28;20651;-75
2021/04/20 05:57:45;;;;;;;76.97;45.40;;;11.10;99.90;;;;;;4990425;28;20182;-75
2021/04/20 06:00:12;;;;;;;77.47;45.90;;;11.40;99.90;;;;;;4974240;28;20194;-75
2021/04/20 06:02:42;;;;;;;73.20;42.40;;;11.60;99.90;;;;;;4976222;28;20240;-76
2021/04/20 06:05:11;;;;;;;75.80;44.70;;;12.00;99.90;;;;;;5004293;28;21030;-76
2021/04/20 06:07:40;;;;;;;75.37;44.97;;;12.20;99.90;;;;;;4973371;28;20207;-76
2021/04/20 06:10:08;;;;;;;83.03;48.03;;;12.30;99.90;;;;;;4983568;28;20225;-76
2021/04/20 06:12:35;;;;;;;76.60;46.57;;;12.30;99.90;;;;;;4974298;28;20283;-76
2021/04/20 06:15:02;;;;;;;84.07;47.33;;;12.40;99.90;;;;;;4973837;28;20188;-76
2021/04/20 06:17:28;;;;;;;78.60;47.70;;;12.60;99.90;;;;;;4973582;28;20192;-76
2021/04/20 06:19:55;;;;;;;74.87;45.27;;;12.80;99.90;;;;;;4989562;28;20187;-76
2021/04/20 06:22:21;;;;;;;74.10;47.00;;;13.40;99.90;;;;;;4973940;28;20189;-76
2021/04/20 06:24:47;;;;;;;78.40;47.17;;;13.90;99.90;;;;;;4973105;28;20193;-76
2021/04/20 06:27:14;;;;;;;81.27;49.83;;;14.30;99.90;;;;;;5006034;28;20440;-75
2021/04/20 06:29:40;;;;;;;78.37;49.63;;;14.50;99.90;;;;;;4973757;28;20216;-76
2021/04/20 06:32:08;;;;;;;79.53;50.07;;;14.50;99.90;;;;;;4974931;28;20674;-76
2021/04/20 06:34:34;;;;;;;76.77;49.57;;;14.70;99.90;;;;;;4974027;28;20228;-76
2021/04/20 06:37:00;;;;;;;75.50;49.33;;;15.10;99.90;;;;;;4990541;28;20191;-76
2021/04/20 06:39:26;;;;;;;78.73;49.47;;;15.60;99.90;;;;;;4976894;28;20575;-76
2021/04/20 06:41:54;;;;;;;74.07;48.87;;;16.10;99.90;;;;;;4973295;28;20192;-76
2021/04/20 06:44:35;;;;;;;72.33;48.57;;;16.60;99.90;;;;;;4973992;28;20191;-76
2021/04/20 06:47:14;;;;;;;76.40;47.67;;;17.60;99.90;;;;;;4989518;28;20185;-76
2021/04/20 06:49:50;;;;;;;71.30;48.37;;;18.60;99.90;;;;;;4974736;28;20210;-77
2021/04/20 06:52:27;;;;;;;68.97;46.67;;;19.20;99.90;;;;;;4972531;28;20764;-77
2021/04/20 06:55:03;;;;;;;68.33;48.60;;;19.90;99.90;;;;;;4972862;28;20196;-76
2021/04/20 06:57:39;;;;;;;68.23;48.30;;;20.70;99.90;;;;;;4972709;28;20180;-76
2021/04/20 07:00:14;;;;;;;75.27;51.83;;;21.20;99.90;;;;;;4972459;28;20356;-76
2021/04/20 07:03:07;;;;;;;70.10;49.97;;;21.90;99.90;;;;;;4973988;28;20274;-76
2021/04/20 07:05:39;;;;;;;63.77;46.23;;;22.40;98.80;;;;;;5004396;28;20250;-76
2021/04/20 07:08:08;;;;;;;66.80;45.50;;;22.30;97.90;;;;;;4984924;28;20977;-76
2021/04/20 07:10:38;;;;;;;66.77;45.70;;;22.00;98.50;;;;;;4988899;28;20283;-77
2021/04/20 07:13:19;;;;;;;66.67;47.53;;;21.90;98.90;;;;;;4972601;28;20183;-76
2021/04/20 07:15:49;;;;;;;67.43;48.47;;;22.70;97.20;;;;;;4987485;28;20639;-76
2021/04/20 07:18:18;;;;;;;68.13;50.50;;;22.50;97.30;;;;;;4973684;28;20194;-76
2021/04/20 07:21:17;;;;;;;69.13;49.37;;;23.20;96.40;;;;;;5003226;28;20612;-76
2021/04/20 07:24:03;;;;;;;64.20;47.17;;;23.70;95.30;;;;;;4972001;28;20194;-76
2021/04/20 07:26:47;;;;;;;65.80;46.97;;;23.50;95.80;;;;;;4985940;28;20544;-76
2021/04/20 07:29:26;;;;;;;69.17;44.97;;;24.30;93.40;;;;;;4988016;28;20286;-76
2021/04/20 07:32:06;;;;;;;67.27;45.33;;;23.50;92.90;;;;;;4986757;28;20194;-77
2021/04/20 07:34:44;;;;;;;70.90;47.07;;;23.20;93.90;;;;;;5002784;28;20250;-76
2021/04/20 07:37:37;;;;;;;67.73;47.37;;;23.80;93.90;;;;;;5003601;28;20657;-76
2021/04/20 07:40:13;;;;;;;70.00;49.60;;;24.30;92.40;;;;;;4973537;28;20215;-76
2021/04/20 07:42:56;;;;;;;67.20;46.57;;;24.80;91.20;;;;;;4979888;28;20242;-77
2021/04/20 07:45:43;;;;;;;64.47;47.47;;;25.70;89.20;;;;;;4989112;28;20203;-76
2021/04/20 07:48:12;;;;;;;72.17;49.67;;;26.80;85.40;;;;;;5005379;28;20205;-77
2021/04/20 07:50:48;;;;;;;70.90;50.53;;;28.00;80.60;;;;;;5003074;28;20689;-77
2021/04/20 07:53:29;;;;;;;69.18;51.00;;;28.30;77.40;;;;;;4972319;28;20179;-77
2021/04/20 07:56:13;;;;;;;66.25;49.70;;;28.80;73.90;;;;;;4970763;28;21243;-77
2021/04/20 07:58:45;;;;;;;71.18;51.42;;;29.40;70.60;;;;;;4985830;28;20534;-76
2021/04/20 08:01:42;;;;;;;70.35;50.60;;;28.20;72.60;;;;;;4985584;28;20179;-75
2021/04/20 08:04:39;;;;;;;71.30;48.28;;;29.30;68.80;;;;;;4971291;28;20191;-76
2021/04/20 08:07:09;;;;;;;67.82;48.55;;;30.00;66.30;;;;;;4966241;28;20333;-76
2021/04/20 08:09:40;;;;;;;67.47;48.45;;;30.40;65.10;;;;;;4984990;28;20642;-75
2021/04/20 08:12:17;;;;;;;62.90;47.60;;;30.70;63.90;;;;;;4986676;28;20198;-76
2021/04/20 08:15:01;;;;;;;66.57;49.50;;;29.80;63.60;;;;;;4986759;28;20282;-76
2021/04/20 08:17:52;;;;;;;64.13;48.50;;;29.60;62.70;;;;;;4972014;28;20183;-75
2021/04/20 08:20:22;;;;;;;62.75;47.28;;;30.00;62.20;;;;;;4968482;28;20205;-76
2021/04/20 08:22:50;;;;;;;65.90;46.08;;;29.80;60.10;;;;;;4972082;28;20221;-76
2021/04/20 08:25:27;;;;;;;65.70;48.35;;;30.00;59.40;;;;;;4970780;28;20270;-76
2021/04/20 08:28:16;;;;;;;62.67;45.22;;;30.60;58.60;;;;;;4972769;28;20190;-76
2021/04/20 08:30:56;;;;;;;61.72;43.58;;;30.50;56.80;;;;;;4968155;28;20211;-76
2021/04/20 08:33:27;;;;;;;55.25;40.30;;;30.60;56.80;;;;;;5002984;28;20195;-76
2021/04/20 08:35:57;;;;;;;53.63;39.50;;;30.90;55.70;;;;;;5003746;28;20627;-76
2021/04/20 08:38:34;;;;;;;53.83;39.83;;;31.50;54.40;;;;;;4983533;28;20190;-76
2021/04/20 08:41:33;;;;;;;50.90;38.00;;;32.00;53.70;;;;;;4971225;28;20207;-78
2021/04/20 08:44:26;;;;;;;43.60;34.05;;;32.10;53.80;;;;;;4971668;28;20194;-76
2021/04/20 08:46:55;;;;;;;53.50;40.08;;;32.20;51.80;;;;;;4981932;28;20767;-76
2021/04/20 08:49:33;;;;;;;52.60;38.42;;;31.80;52.50;;;;;;4970580;28;20219;-77
2021/04/20 08:52:37;;;;;;;46.05;36.53;;;32.00;51.60;;;;;;4972297;28;20222;-77
2021/04/20 08:55:24;;;;;;;50.45;38.45;;;32.20;51.10;;;;;;5001496;28;21740;-76
2021/04/20 08:58:08;;;;;;;49.20;39.22;;;32.90;51.10;;;;;;4986523;28;20183;-76
2021/04/20 09:00:42;;;;;;;52.30;40.53;;;33.70;50.20;;;;;;4967356;28;20218;-76
2021/04/20 09:03:31;;;;;;;44.00;36.00;;;33.80;48.80;;;;;;4970210;28;20246;-77
2021/04/20 09:06:01;;;;;;;48.40;37.63;;;33.20;48.60;;;;;;4953519;28;20213;-77
2021/04/20 09:08:46;;;;;;;49.95;38.00;;;32.40;48.10;;;;;;4971078;28;20219;-77
2021/04/20 09:11:29;;;;;;;46.78;37.45;;;32.50;49.30;;;;;;4969853;28;20258;-77
2021/04/20 09:14:00;;;;;;;45.88;36.50;;;33.00;48.40;;;;;;4969259;28;20193;-75
2021/04/20 09:16:49;;;;;;;45.42;35.75;;;33.40;48.50;;;;;;5019613;28;20547;-76
2021/04/20 09:19:39;;;;;;;43.33;34.90;;;33.80;48.30;;;;;;4969856;28;20190;-75
2021/04/20 09:22:11;;;;;;;44.45;36.28;;;33.40;47.00;;;;;;4970973;28;20183;-76
2021/04/20 09:24:45;;;;;;;44.10;35.05;;;33.80;45.90;;;;;;5000709;28;20606;-76
2021/04/20 09:27:21;;;;;;;46.35;35.53;;;33.50;47.60;;;;;;4965498;28;20186;-75
2021/04/20 09:30:11;;;;;;;48.58;37.13;;;32.40;47.70;;;;;;4971288;28;20199;-75
2021/04/20 09:32:44;;;;;;;49.50;36.38;;;32.50;50.20;;;;;;5000902;28;20180;-76
2021/04/20 09:35:12;;;;;;;49.35;36.50;;;32.40;47.70;;;;;;4971002;28;20223;-76
2021/04/20 09:37:41;;;;;;;46.50;36.08;;;33.20;47.60;;;;;;4968200;28;20191;-76
2021/04/20 09:40:10;;;;;;;45.22;35.83;;;33.10;46.10;;;;;;4982727;28;20683;-76
2021/04/20 09:42:36;;;;;;;46.53;36.15;;;32.50;46.80;;;;;;4968371;28;20194;-76
2021/04/20 09:45:22;;;;;;;47.03;34.42;;;31.90;47.10;;;;;;4973736;28;20193;-75
2021/04/20 09:48:14;;;;;;;45.08;33.50;;;32.20;46.90;;;;;;4972952;28;20655;-76
2021/04/20 09:51:01;;;;;;;47.55;35.13;;;32.80;47.10;;;;;;4984478;28;20219;-75
2021/04/20 09:53:50;;;;;;;46.47;33.63;;;32.00;46.10;;;;;;4997672;28;20187;-75
2021/04/20 09:56:35;;;;;;;48.03;33.33;;;31.80;46.90;;;;;;4970387;28;20246;-76
2021/04/20 09:59:05;;;;;;;44.05;32.42;;;31.80;46.90;;;;;;4985169;28;20219;-76
2021/04/20 10:01:50;;;;;;;47.47;33.08;;;31.70;48.20;;;;;;4999330;28;20209;-75
2021/04/20 10:04:40;;;;;;;46.88;34.70;;;32.40;46.80;;;;;;4970556;28;20187;-75
2021/04/20 10:07:14;;;;;;;46.28;34.05;;;31.50;47.10;;;;;;4969416;28;20708;-76
2021/04/20 10:10:17;;;;;;;45.70;32.63;;;31.30;47.80;;;;;;4971187;28;20632;-76
2021/04/20 10:13:28;;;;;;;44.40;33.95;;;31.70;47.90;;;;;;4983902;28;20226;-76
2021/04/20 10:16:22;;;;;;;47.80;34.60;;;30.30;48.70;;;;;;5001401;28;20191;-75
2021/04/20 10:19:06;;;;;;;42.20;32.03;;;30.20;47.70;;;;;;4967879;28;20183;-76
2021/04/20 10:22:12;;;;;;;42.40;32.47;;;30.60;47.90;;;;;;4969768;28;20187;-76
2021/04/20 10:24:43;;;;;;;44.25;30.90;;;31.70;46.90;;;;;;4984300;28;20221;-76
2021/04/20 10:27:18;;;;;;;48.17;32.97;;;31.20;46.60;;;;;;4969531;28;20215;-75
2021/04/20 10:29:50;;;;;;;44.75;32.80;;;32.10;45.80;;;;;;4982028;28;21191;-76
2021/04/20 10:32:16;;;;;;;43.28;34.00;;;32.10;46.90;;;;;;4970784;28;20179;-75
2021/04/20 10:34:48;;;;;;;43.65;33.08;;;30.40;46.40;;;;;;4973167;28;20233;-75
2021/04/20 10:37:15;;;;;;;47.05;33.78;;;29.80;48.30;;;;;;4990130;28;20720;-76
2021/04/20 10:39:46;;;;;;;45.85;31.65;;;29.80;48.70;;;;;;4975114;28;20175;-76
2021/04/20 10:42:14;;;;;;;45.63;33.28;;;31.30;47.90;;;;;;4973858;28;20199;-76
2021/04/20 10:44:41;;;;;;;48.85;33.88;;;31.60;46.90;;;;;;4973207;28;20198;-75
2021/04/20 10:47:07;;;;;;;44.38;31.05;;;32.40;45.90;;;;;;4988540;28;20182;-76
2021/04/20 10:49:34;;;;;;;43.03;32.83;;;32.40;45.50;;;;;;4972783;28;20218;-76
2021/04/20 10:52:11;;;;;;;44.10;31.45;;;31.00;47.90;;;;;;4974064;28;20195;-76
2021/04/20 10:54:39;;;;;;;42.00;31.45;;;29.70;48.80;;;;;;4972026;28;20198;-78
2021/04/20 10:57:07;;;;;;;46.00;33.92;;;29.70;49.40;;;;;;4973745;28;20270;-76
2021/04/20 10:59:39;;;;;;;41.38;32.17;;;29.60;49.00;;;;;;5019806;28;20187;-75
2021/04/20 11:02:17;;;;;;;42.28;31.13;;;29.60;49.20;;;;;;4974233;28;20230;-76
2021/04/20 11:04:44;;;;;;;43.78;31.63;;;28.50;49.50;;;;;;4990246;28;20202;-76
2021/04/20 11:07:26;;;;;;;39.75;31.55;;;29.10;49.70;;;;;;4987904;28;20222;-76
2021/04/20 11:09:56;;;;;;;40.65;30.77;;;29.50;49.20;;;;;;4973775;28;20272;-76
2021/04/20 11:12:23;;;;;;;43.38;31.40;;;30.50;47.90;;;;;;4985232;28;20222;-75
2021/04/20 11:14:51;;;;;;;45.20;32.70;;;29.90;48.00;;;;;;4974392;28;20237;-76
2021/04/20 11:17:33;;;;;;;48.85;34.63;;;27.80;49.20;;;;;;4972612;28;20191;-75
2021/04/20 11:20:24;;;;;;;44.10;32.40;;;26.30;51.70;;;;;;4973361;28;20218;-76
2021/04/20 11:23:01;;;;;;;46.30;34.27;;;25.60;54.20;;;;;;4986466;28;20661;-76
2021/04/20 11:25:38;;;;;;;43.57;31.83;;;25.20;54.00;;;;;;4972462;28;20194;-76
2021/04/20 11:28:14;;;;;;;46.20;31.23;;;24.90;54.50;;;;;;5002344;28;20653;-76
2021/04/20 11:30:50;;;;;;;45.07;31.73;;;25.40;55.30;;;;;;4989972;28;20207;-77
2021/04/20 11:33:26;;;;;;;45.05;31.85;;;26.20;53.60;;;;;;4972819;28;20193;-77
2021/04/20 11:35:56;;;;;;;44.35;32.30;;;26.80;52.30;;;;;;4971432;28;20278;-76
2021/04/20 11:38:21;;;;;;;44.03;30.70;;;27.50;52.20;;;;;;4972593;28;20265;-77
2021/04/20 11:41:02;;;;;;;43.63;30.52;;;27.40;50.80;;;;;;4970666;28;20214;-77
2021/04/20 11:43:31;;;;;;;40.15;28.20;;;27.80;50.90;;;;;;4972968;28;20199;-77
2021/04/20 11:45:57;;;;;;;33.42;25.17;;;28.10;49.80;;;;;;4972578;28;20282;-77
2021/04/20 11:48:32;;;;;;;38.53;27.40;;;28.40;48.20;;;;;;4971620;28;20217;-77
2021/04/20 11:51:01;;;;;;;38.40;28.58;;;28.00;49.00;;;;;;4975861;28;20203;-77
2021/04/20 11:53:29;;;;;;;36.65;26.55;;;28.10;48.80;;;;;;4972086;28;20654;-76
2021/04/20 11:56:01;;;;;;;37.80;26.73;;;27.70;49.10;;;;;;4972521;28;20693;-76
2021/04/20 11:58:39;;;;;;;36.78;28.45;;;28.30;52.20;;;;;;4969478;28;20187;-76
2021/04/20 12:01:17;;;;;;;38.85;29.48;;;29.00;50.10;;;;;;4987254;28;20732;-76
2021/04/20 12:04:00;;;;;;;37.97;29.00;;;29.10;48.90;;;;;;5004139;28;20187;-76
2021/04/20 12:06:39;;;;;;;38.83;29.45;;;28.50;49.20;;;;;;4971860;28;20209;-76
2021/04/20 12:09:06;;;;;;;41.90;29.42;;;27.60;50.00;;;;;;4972359;28;20179;-77
2021/04/20 12:11:33;;;;;;;37.72;29.38;;;26.90;51.60;;;;;;4971320;28;20621;-77
2021/04/20 12:14:00;;;;;;;39.92;28.90;;;26.50;51.60;;;;;;4970203;28;20198;-76
2021/04/20 12:16:35;;;;;;;42.53;29.92;;;26.50;52.00;;;;;;4973032;28;20202;-76
2021/04/20 12:19:05;;;;;;;39.35;27.50;;;26.50;53.00;;;;;;4971777;28;20297;-76
2021/04/20 12:21:36;;;;;;;36.60;27.60;;;26.80;52.40;;;;;;4973287;28;20246;-76
2021/04/20 12:24:03;;;;;;;35.92;25.15;;;26.70;51.50;;;;;;4970826;28;20549;-77
2021/04/20 12:26:31;;;;;;;36.83;28.15;;;27.40;50.90;;;;;;4955119;28;20198;-76
2021/04/20 12:29:01;;;;;;;34.92;26.45;;;27.10;48.90;;;;;;4972252;28;20204;-77
2021/04/20 12:31:32;;;;;;;35.45;25.48;;;26.80;50.60;;;;;;4972323;28;20645;-77
2021/04/20 12:33:59;;;;;;;37.65;25.77;;;26.30;51.10;;;;;;4988384;28;20238;-77
2021/04/20 12:36:29;;;;;;;38.30;25.83;;;25.20;51.80;;;;;;4970336;28;20675;-77
2021/04/20 12:38:59;;;;;;;34.13;26.23;;;24.80;54.20;;;;;;4973067;28;20258;-76
2021/04/20 12:41:29;;;;;;;40.40;27.83;;;24.70;55.50;;;;;;4970427;28;20210;-76
2021/04/20 12:43:58;;;;;;;39.40;28.20;;;24.40;54.80;;;;;;4973507;28;20293;-76
2021/04/20 12:46:27;;;;;;;36.37;27.67;;;23.60;55.20;;;;;;4970964;28;20179;-76
2021/04/20 12:49:00;;;;;;;41.10;28.07;;;23.00;55.60;;;;;;4970875;28;20637;-77
2021/04/20 12:51:30;;;;;;;41.90;28.20;;;22.70;56.00;;;;;;4972710;28;20168;-77
2021/04/20 12:53:57;;;;;;;41.37;27.27;;;22.50;57.00;;;;;;4969629;28;20195;-77